createdAt,value
2019-05-14T00:00:41.653Z,54.40
2019-05-14T00:03:14.631Z,54.50
2019-05-14T00:05:48.167Z,54.60
2019-05-14T00:08:22.115Z,55.30
2019-05-14T00:10:55.940Z,54.90
2019-05-14T00:13:29.355Z,55.00
2019-05-14T00:16:02.775Z,55.10
2019-05-14T00:18:36.187Z,55.30
2019-05-14T00:21:12.024Z,55.30
2019-05-14T00:23:44.821Z,55.40
2019-05-14T00:26:18.245Z,55.50
2019-05-14T00:28:51.649Z,55.60
2019-05-14T00:31:25.079Z,55.80
2019-05-14T00:33:58.482Z,55.80
2019-05-14T00:36:32.001Z,56.00
2019-05-14T00:39:06.896Z,56.00
2019-05-14T00:41:42.093Z,56.00
2019-05-14T00:44:15.463Z,56.00
2019-05-14T00:46:48.888Z,55.90
2019-05-14T00:49:22.295Z,56.00
2019-05-14T00:51:55.719Z,56.20
2019-05-14T00:54:29.400Z,56.40
2019-05-14T00:57:02.827Z,56.50
2019-05-14T00:59:36.243Z,56.50
2019-05-14T01:02:11.340Z,56.70
2019-05-14T01:04:44.859Z,56.60
2019-05-14T01:07:18.287Z,56.70
2019-05-14T01:09:52.436Z,56.80
2019-05-14T01:12:26.291Z,56.80
2019-05-14T01:15:07.863Z,56.90
2019-05-14T01:17:34.852Z,56.80
2019-05-14T01:20:08.805Z,57.00
2019-05-14T01:22:42.434Z,57.10
2019-05-14T01:25:16.107Z,57.30
2019-05-14T01:27:51.640Z,57.10
2019-05-14T01:30:24.663Z,57.10
2019-05-14T01:32:58.627Z,57.10
2019-05-14T01:35:32.107Z,57.20
2019-05-14T01:38:05.523Z,57.20
2019-05-14T01:40:38.939Z,57.20
2019-05-14T01:43:12.359Z,57.20
2019-05-14T01:45:45.789Z,57.30
2019-05-14T01:48:19.200Z,57.40
2019-05-14T01:50:52.635Z,57.50
2019-05-14T01:53:26.039Z,57.80
2019-05-14T01:56:01.695Z,57.90
2019-05-14T01:58:34.775Z,57.70
2019-05-14T02:01:11.875Z,57.90
2019-05-14T02:03:44.756Z,58.00
2019-05-14T02:06:18.183Z,58.20
2019-05-14T02:08:51.697Z,58.10
2019-05-14T02:11:25.099Z,58.30
2019-05-14T02:13:58.523Z,58.20
2019-05-14T02:16:31.952Z,58.40
2019-05-14T02:19:05.355Z,58.50
2019-05-14T02:21:38.783Z,58.50
2019-05-14T02:24:12.203Z,58.50
2019-05-14T02:26:45.623Z,58.50
2019-05-14T02:29:21.284Z,58.70
2019-05-14T02:31:54.176Z,58.80
2019-05-14T02:34:29.910Z,58.70
2019-05-14T02:37:02.742Z,58.70
2019-05-14T02:39:36.157Z,58.70
2019-05-14T02:42:09.950Z,58.80
2019-05-14T02:44:43.584Z,58.80
2019-05-14T02:47:19.458Z,59.00
2019-05-14T02:49:52.137Z,58.90
2019-05-14T02:52:25.563Z,59.10
2019-05-14T02:54:59.683Z,59.20
2019-05-14T02:57:33.372Z,59.10
2019-05-14T03:00:10.656Z,59.00
2019-05-14T03:02:44.088Z,58.80
2019-05-14T03:05:19.206Z,58.80
2019-05-14T03:07:52.720Z,58.70
2019-05-14T03:10:26.132Z,58.50
2019-05-14T03:12:59.634Z,58.40
2019-05-14T03:15:33.049Z,58.30
2019-05-14T03:18:09.030Z,58.10
2019-05-14T03:20:41.677Z,58.20
2019-05-14T03:23:18.635Z,58.20
2019-05-14T03:25:50.235Z,58.20
2019-05-14T03:28:23.658Z,58.10
2019-05-14T03:31:02.495Z,58.00
2019-05-14T03:33:33.819Z,57.80
2019-05-14T03:36:11.409Z,57.80
2019-05-14T03:38:42.643Z,57.60
2019-05-14T03:41:16.059Z,57.50
2019-05-14T03:43:49.783Z,57.70
2019-05-14T03:46:41.235Z,57.80
2019-05-14T03:49:00.183Z,58.00
2019-05-14T03:51:34.112Z,58.10
2019-05-14T03:54:12.123Z,58.10
2019-05-14T03:56:42.667Z,58.10
2019-05-14T03:59:19.718Z,58.50
2019-05-14T04:01:52.101Z,58.00
2019-05-14T04:04:25.530Z,58.00
2019-05-14T04:07:02.076Z,57.90
2019-05-14T04:09:35.975Z,57.80
2019-05-14T04:12:10.345Z,57.80
2019-05-14T04:14:46.288Z,58.00
2019-05-14T04:17:32.480Z,58.10
2019-05-14T04:20:00.126Z,58.00
2019-05-14T04:22:33.903Z,57.90
2019-05-14T04:25:10.891Z,57.80
2019-05-14T04:27:44.203Z,57.90
2019-05-14T04:30:23.185Z,57.80
2019-05-14T04:32:55.705Z,57.70
2019-05-14T04:35:29.761Z,57.60
2019-05-14T04:38:03.563Z,57.50
2019-05-14T04:40:39.873Z,57.40
2019-05-14T04:43:12.132Z,57.40
2019-05-14T04:45:45.535Z,57.20
2019-05-14T04:48:31.323Z,57.10
2019-05-14T04:50:54.171Z,56.80
2019-05-14T04:53:30.912Z,56.50
2019-05-14T04:56:02.743Z,56.40
2019-05-14T04:58:36.172Z,56.40
2019-05-14T05:01:10.184Z,56.40
2019-05-14T05:03:43.883Z,56.10
2019-05-14T05:06:19.160Z,55.80
2019-05-14T05:08:52.440Z,55.70
2019-05-14T05:11:28.895Z,55.40
2019-05-14T05:14:01.045Z,55.30
2019-05-14T05:16:34.446Z,55.30
2019-05-14T05:19:10.397Z,55.00
2019-05-14T05:21:43.002Z,54.90
2019-05-14T05:24:18.407Z,55.10
2019-05-14T05:26:51.571Z,54.90
2019-05-14T05:29:24.987Z,54.60
2019-05-14T05:31:59.350Z,54.50
2019-05-14T05:34:33.152Z,54.20
2019-05-14T05:37:08.645Z,53.70
2019-05-14T05:39:41.712Z,52.70
2019-05-14T05:42:15.127Z,52.50
2019-05-14T05:44:48.587Z,52.50
2019-05-14T05:47:22.040Z,52.00
2019-05-14T05:49:57.981Z,51.80
2019-05-14T05:52:30.705Z,51.60
2019-05-14T05:55:08.888Z,51.20
2019-05-14T05:57:42.620Z,50.60
2019-05-14T06:00:20.207Z,49.60
2019-05-14T06:02:53.607Z,48.60
2019-05-14T06:05:29.123Z,47.90
2019-05-14T06:08:02.251Z,47.40
2019-05-14T06:10:35.681Z,46.80
2019-05-14T06:13:09.093Z,46.30
2019-05-14T06:15:48.264Z,45.90
2019-05-14T06:18:21.856Z,45.50
2019-05-14T06:20:53.266Z,45.20
2019-05-14T06:23:28.429Z,44.90
2019-05-14T06:26:01.827Z,44.60
2019-05-14T06:28:35.251Z,44.50
2019-05-14T06:31:09.872Z,44.40
2019-05-14T06:33:43.785Z,44.40
2019-05-14T06:36:19.530Z,44.20
2019-05-14T06:38:52.359Z,44.00
2019-05-14T06:41:28.175Z,43.90
2019-05-14T06:44:00.947Z,43.80
2019-05-14T06:46:34.379Z,43.60
2019-05-14T06:49:09.107Z,43.50
2019-05-14T06:51:42.795Z,43.50
2019-05-14T06:54:19.442Z,43.50
2019-05-14T06:56:51.364Z,43.30
2019-05-14T06:59:24.767Z,43.20
2019-05-14T07:01:58.289Z,43.20
2019-05-14T07:04:31.751Z,43.30
2019-05-14T07:07:05.201Z,43.30
2019-05-14T07:09:38.674Z,43.30
2019-05-14T07:12:12.128Z,43.20
2019-05-14T07:14:47.988Z,43.20
2019-05-14T07:17:20.782Z,42.90
2019-05-14T07:19:54.227Z,42.90
2019-05-14T07:22:28.139Z,42.90
2019-05-14T07:25:01.952Z,42.80
2019-05-14T07:27:35.855Z,42.70
2019-05-14T07:30:10.908Z,42.60
2019-05-14T07:32:44.340Z,42.50
2019-05-14T07:35:18.340Z,42.50
2019-05-14T07:37:52.147Z,42.30
2019-05-14T07:40:25.595Z,42.30
2019-05-14T07:42:59.011Z,42.20
2019-05-14T07:45:33.466Z,41.50
2019-05-14T07:48:09.365Z,41.90
2019-05-14T07:50:42.331Z,42.10
2019-05-14T07:53:17.887Z,42.10
2019-05-14T07:55:50.918Z,41.90
2019-05-14T07:58:24.331Z,42.00
2019-05-14T08:00:58.591Z,41.80
2019-05-14T08:03:32.372Z,41.40
2019-05-14T08:06:08.086Z,41.00
2019-05-14T08:08:40.943Z,40.70
2019-05-14T08:11:14.391Z,40.40
2019-05-14T08:13:49.292Z,39.90
2019-05-14T08:16:22.972Z,39.60
2019-05-14T08:18:56.457Z,39.20
2019-05-14T08:21:29.968Z,39.00
2019-05-14T08:24:03.383Z,38.70
2019-05-14T08:26:38.261Z,38.80
2019-05-14T08:29:12.100Z,38.20
2019-05-14T08:31:45.560Z,37.90
2019-05-14T08:34:19.270Z,37.50
2019-05-14T08:36:52.939Z,37.50
2019-05-14T08:39:28.592Z,37.20
2019-05-14T08:42:04.326Z,36.90
2019-05-14T08:44:38.729Z,36.70
2019-05-14T08:47:11.820Z,36.40
2019-05-14T08:49:47.607Z,36.40
2019-05-14T08:52:20.375Z,36.50
2019-05-14T08:55:05.473Z,36.50
2019-05-14T08:57:29.364Z,36.30
2019-05-14T09:00:03.808Z,36.10
2019-05-14T09:02:39.298Z,35.80
2019-05-14T09:05:12.567Z,35.50
2019-05-14T09:07:45.997Z,35.20
2019-05-14T09:10:19.493Z,35.10
2019-05-14T09:12:52.979Z,34.90
2019-05-14T09:15:28.674Z,34.90
2019-05-14T09:18:03.642Z,34.90
2019-05-14T09:20:38.166Z,35.00
2019-05-14T09:23:11.899Z,34.90
2019-05-14T09:25:48.981Z,34.90
2019-05-14T09:28:20.483Z,34.60
2019-05-14T09:30:53.905Z,34.30
2019-05-14T09:33:29.664Z,34.20
2019-05-14T09:36:17.630Z,34.00
2019-05-14T09:38:42.235Z,34.00
2019-05-14T09:41:15.473Z,33.70
2019-05-14T09:43:48.802Z,33.70
2019-05-14T09:46:22.570Z,33.80
2019-05-14T09:48:55.996Z,33.80
2019-05-14T09:51:29.414Z,33.60
2019-05-14T09:54:02.863Z,33.30
2019-05-14T09:56:36.271Z,33.10
2019-05-14T09:59:09.710Z,32.90
2019-05-14T10:01:43.127Z,32.60
2019-05-14T10:04:16.557Z,32.50
2019-05-14T10:06:49.972Z,32.40
2019-05-14T10:09:23.541Z,32.70
2019-05-14T10:11:58.010Z,33.00
2019-05-14T10:14:31.823Z,33.30
2019-05-14T10:17:05.251Z,33.30
2019-05-14T10:19:39.515Z,33.20
2019-05-14T10:22:13.227Z,33.30
2019-05-14T10:24:46.639Z,33.20
2019-05-14T10:27:20.071Z,33.10
2019-05-14T10:29:54.024Z,33.00
2019-05-14T10:32:29.436Z,32.90
2019-05-14T10:35:02.596Z,32.90
2019-05-14T10:37:36.031Z,32.90
2019-05-14T10:40:10.650Z,33.00
2019-05-14T10:42:44.191Z,33.10
2019-05-14T10:45:18.624Z,33.10
2019-05-14T10:47:52.360Z,32.80
2019-05-14T10:50:25.799Z,32.70
2019-05-14T10:52:59.762Z,32.90
2019-05-14T10:55:33.491Z,32.90
2019-05-14T10:58:08.933Z,33.00
2019-05-14T11:00:42.158Z,32.90
2019-05-14T11:03:15.669Z,32.80
2019-05-14T11:05:49.075Z,32.90
2019-05-14T11:08:22.511Z,33.00
2019-05-14T11:11:03.184Z,33.10
2019-05-14T11:13:31.164Z,33.20
2019-05-14T11:16:04.579Z,33.10
2019-05-14T11:18:39.978Z,33.00
2019-05-14T11:21:24.869Z,33.20
2019-05-14T11:23:49.054Z,33.30
2019-05-14T11:26:24.995Z,33.10
2019-05-14T11:28:58.699Z,32.90
2019-05-14T11:31:34.313Z,32.60
2019-05-14T11:34:08.260Z,32.20
2019-05-14T11:36:42.167Z,32.10
2019-05-14T11:39:17.946Z,32.20
2019-05-14T11:41:50.721Z,32.20
2019-05-14T11:44:24.154Z,32.30
2019-05-14T11:47:02.015Z,32.60
2019-05-14T11:49:32.768Z,32.40
2019-05-14T11:52:08.598Z,32.00
2019-05-14T11:54:41.324Z,31.70
2019-05-14T11:57:14.734Z,31.70
2019-05-14T11:59:48.539Z,31.50
2019-05-14T12:02:21.953Z,31.40
2019-05-14T12:04:55.391Z,31.90
2019-05-14T12:07:28.807Z,31.00
2019-05-14T12:10:02.246Z,31.40
2019-05-14T12:12:35.727Z,30.70
2019-05-14T12:15:09.791Z,30.60
2019-05-14T12:17:43.208Z,30.70
2019-05-14T12:20:17.579Z,30.70
2019-05-14T12:22:51.007Z,30.60
2019-05-14T12:25:24.496Z,30.30
2019-05-14T12:27:58.952Z,30.00
2019-05-14T12:30:32.710Z,30.00
2019-05-14T12:33:06.125Z,29.80
2019-05-14T12:35:40.393Z,29.50
2019-05-14T12:38:14.051Z,29.40
2019-05-14T12:40:47.484Z,29.60
2019-05-14T12:43:20.898Z,29.60
2019-05-14T12:45:54.412Z,30.00
2019-05-14T12:48:29.864Z,29.90
2019-05-14T12:51:02.968Z,30.00
2019-05-14T12:53:39.113Z,30.00
2019-05-14T12:56:11.555Z,29.90
2019-05-14T12:58:46.016Z,30.00
2019-05-14T13:01:20.287Z,29.90
2019-05-14T13:03:54.145Z,29.80
2019-05-14T13:06:29.351Z,29.90
2019-05-14T13:09:02.710Z,30.00
2019-05-14T13:11:41.228Z,30.00
2019-05-14T13:14:11.282Z,30.00
2019-05-14T13:16:44.703Z,30.00
2019-05-14T13:19:18.968Z,30.10
2019-05-14T13:22:08.742Z,30.00
2019-05-14T13:24:28.814Z,30.00
2019-05-14T13:27:02.642Z,29.70
2019-05-14T13:29:36.087Z,29.60
2019-05-14T13:32:12.347Z,29.60
2019-05-14T13:34:44.719Z,29.70
2019-05-14T13:37:18.167Z,29.90
2019-05-14T13:39:53.140Z,30.00
2019-05-14T13:42:29.359Z,30.20
2019-05-14T13:45:01.908Z,30.20
2019-05-14T13:47:35.335Z,30.20
2019-05-14T13:50:09.260Z,30.00
2019-05-14T13:52:58.348Z,29.80
2019-05-14T13:55:19.437Z,29.80
2019-05-14T13:57:53.177Z,29.60
2019-05-14T14:00:28.218Z,29.50
2019-05-14T14:03:01.627Z,29.60
2019-05-14T14:05:35.055Z,29.60
2019-05-14T14:08:08.909Z,29.70
2019-05-14T14:10:45.710Z,29.60
2019-05-14T14:13:19.721Z,29.70
2019-05-14T14:15:52.816Z,29.70
2019-05-14T14:18:26.509Z,29.30
2019-05-14T14:21:00.853Z,28.70
2019-05-14T14:23:34.281Z,28.10
2019-05-14T14:26:09.423Z,28.00
2019-05-14T14:28:42.885Z,28.20
2019-05-14T14:31:18.668Z,28.40
2019-05-14T14:33:51.472Z,28.50
2019-05-14T14:36:24.898Z,28.70
2019-05-14T14:38:58.878Z,29.10
2019-05-14T14:41:32.501Z,28.70
2019-05-14T14:44:08.555Z,28.50
2019-05-14T14:46:41.091Z,27.80
2019-05-14T14:49:14.512Z,28.00
2019-05-14T14:51:49.222Z,28.50
2019-05-14T14:54:22.922Z,28.80
2019-05-14T14:56:59.048Z,29.10
2019-05-14T14:59:32.257Z,29.30
2019-05-14T15:02:05.697Z,28.80
2019-05-14T15:04:39.810Z,29.10
2019-05-14T15:07:13.691Z,29.00
2019-05-14T15:09:48.745Z,28.80
2019-05-14T15:12:22.404Z,28.60
2019-05-14T15:14:59.069Z,28.70
2019-05-14T15:17:30.987Z,29.10
2019-05-14T15:20:09.841Z,29.50
2019-05-14T15:22:41.384Z,29.90
2019-05-14T15:25:14.971Z,30.10
2019-05-14T15:27:49.100Z,30.30
2019-05-14T15:30:22.792Z,30.40
2019-05-14T15:32:56.219Z,30.40
2019-05-14T15:35:29.652Z,30.40
2019-05-14T15:38:03.067Z,31.30
2019-05-14T15:40:39.791Z,32.60
2019-05-14T15:43:11.643Z,32.50
2019-05-14T15:45:45.072Z,32.10
2019-05-14T15:48:19.970Z,32.00
2019-05-14T15:50:53.783Z,31.50
2019-05-14T15:53:29.037Z,31.50
2019-05-14T15:56:02.356Z,31.40
2019-05-14T15:58:35.782Z,31.50
2019-05-14T16:01:09.911Z,31.50
2019-05-14T16:03:44.192Z,31.60
2019-05-14T16:06:19.370Z,31.80
2019-05-14T16:08:52.980Z,31.80
2019-05-14T16:11:28.621Z,31.80
2019-05-14T16:14:01.535Z,32.00
2019-05-14T16:16:34.970Z,32.10
2019-05-14T16:19:08.389Z,32.00
2019-05-14T16:21:41.827Z,31.30
2019-05-14T16:24:15.230Z,30.80
2019-05-14T16:26:48.664Z,30.60
2019-05-14T16:29:36.845Z,30.90
2019-05-14T16:31:58.184Z,31.10
2019-05-14T16:34:32.023Z,31.00
2019-05-14T16:37:10.732Z,31.20
2019-05-14T16:39:40.605Z,31.00
2019-05-14T16:42:14.034Z,30.90
2019-05-14T16:44:47.448Z,30.70
2019-05-14T16:47:20.876Z,30.60
2019-05-14T16:49:54.331Z,30.60
2019-05-14T16:52:28.647Z,30.70
2019-05-14T16:55:20.531Z,30.70
2019-05-14T16:57:38.641Z,30.80
2019-05-14T17:00:12.586Z,31.60
2019-05-14T17:02:48.162Z,32.30
2019-05-14T17:05:21.243Z,32.30
2019-05-14T17:07:54.670Z,33.00
2019-05-14T17:10:28.632Z,33.30
2019-05-14T17:13:02.678Z,33.10
2019-05-14T17:15:36.107Z,32.80
2019-05-14T17:18:09.616Z,32.60
2019-05-14T17:20:43.098Z,32.80
2019-05-14T17:23:16.579Z,33.00
2019-05-14T17:25:49.991Z,33.20
2019-05-14T17:28:23.448Z,33.60
2019-05-14T17:30:56.915Z,34.10
2019-05-14T17:33:30.343Z,34.60
2019-05-14T17:36:03.834Z,35.20
2019-05-14T17:38:39.094Z,35.70
2019-05-14T17:41:12.401Z,36.00
2019-05-14T17:43:45.825Z,36.30
2019-05-14T17:46:19.227Z,36.70
2019-05-14T17:48:52.658Z,37.00
2019-05-14T17:51:28.277Z,37.30
2019-05-14T17:54:01.223Z,37.50
2019-05-14T17:56:34.639Z,37.70
2019-05-14T17:59:08.582Z,37.70
2019-05-14T18:01:42.259Z,37.80
2019-05-14T18:04:18.208Z,38.00
2019-05-14T18:06:50.828Z,38.00
2019-05-14T18:09:24.260Z,38.20
2019-05-14T18:11:58.648Z,38.20
2019-05-14T18:14:32.291Z,38.40
2019-05-14T18:17:05.719Z,38.60
2019-05-14T18:19:39.133Z,38.80
2019-05-14T18:22:12.560Z,39.10
2019-05-14T18:24:48.522Z,39.20
2019-05-14T18:27:21.191Z,39.40
2019-05-14T18:29:54.612Z,39.60
2019-05-14T18:32:28.043Z,39.50
2019-05-14T18:35:01.464Z,39.20
2019-05-14T18:37:34.895Z,39.00
2019-05-14T18:40:09.242Z,38.60
2019-05-14T18:42:42.860Z,38.50
2019-05-14T18:45:18.796Z,38.30
2019-05-14T18:47:51.670Z,38.20
2019-05-14T18:50:25.084Z,38.00
2019-05-14T18:52:59.704Z,38.30
2019-05-14T18:55:33.619Z,38.40
2019-05-14T18:58:08.599Z,38.00
2019-05-14T19:00:42.421Z,37.80
2019-05-14T19:03:15.852Z,37.60
2019-05-14T19:05:49.254Z,37.50
2019-05-14T19:08:22.682Z,37.50
2019-05-14T19:10:56.140Z,37.50
2019-05-14T19:13:31.263Z,37.60
2019-05-14T19:16:04.675Z,37.60
2019-05-14T19:18:38.559Z,38.00
2019-05-14T19:21:12.404Z,38.40
2019-05-14T19:23:45.850Z,39.10
2019-05-14T19:26:32.956Z,39.70
2019-05-14T19:28:54.408Z,40.10
2019-05-14T19:31:27.971Z,40.60
2019-05-14T19:34:01.631Z,41.00
2019-05-14T19:36:35.069Z,41.30
2019-05-14T19:39:08.921Z,41.60
2019-05-14T19:41:42.333Z,41.70
2019-05-14T19:44:18.633Z,42.00
2019-05-14T19:46:50.904Z,42.30
2019-05-14T19:49:24.337Z,42.40
2019-05-14T19:51:58.795Z,42.60
2019-05-14T19:54:32.568Z,42.80
2019-05-14T19:57:06.052Z,42.90
2019-05-14T19:59:39.502Z,43.10
2019-05-14T20:02:12.907Z,43.20
2019-05-14T20:04:46.336Z,43.40
2019-05-14T20:07:19.748Z,43.60
2019-05-14T20:09:53.178Z,43.60
2019-05-14T20:12:28.616Z,43.90
2019-05-14T20:15:01.820Z,44.10
2019-05-14T20:17:35.239Z,44.10
2019-05-14T20:20:09.374Z,44.20
2019-05-14T20:22:42.833Z,44.30
2019-05-14T20:25:16.255Z,44.50
2019-05-14T20:27:49.676Z,44.60
2019-05-14T20:30:23.186Z,44.60
2019-05-14T20:32:59.075Z,44.80
2019-05-14T20:35:34.983Z,44.80
2019-05-14T20:38:09.002Z,45.00
2019-05-14T20:40:42.081Z,45.10
2019-05-14T20:43:15.499Z,45.20
2019-05-14T20:45:49.164Z,45.30
2019-05-14T20:48:22.632Z,45.40
2019-05-14T20:50:57.895Z,45.60
2019-05-14T20:53:31.200Z,45.60
2019-05-14T20:56:04.639Z,45.70
2019-05-14T20:58:38.860Z,45.80
2019-05-14T21:01:12.661Z,45.90
2019-05-14T21:03:48.173Z,46.00
2019-05-14T21:06:21.224Z,46.20
2019-05-14T21:08:54.680Z,46.30
2019-05-14T21:11:28.729Z,46.40
2019-05-14T21:14:02.503Z,46.60
2019-05-14T21:16:35.919Z,46.60
2019-05-14T21:19:09.347Z,46.80
2019-05-14T21:21:42.761Z,46.90
2019-05-14T21:24:18.118Z,47.10
2019-05-14T21:26:51.339Z,47.20
2019-05-14T21:29:24.798Z,47.60
2019-05-14T21:32:01.337Z,47.80
2019-05-14T21:34:33.375Z,47.90
2019-05-14T21:37:08.817Z,48.00
2019-05-14T21:39:42.032Z,48.20
2019-05-14T21:42:15.451Z,48.40
2019-05-14T21:44:51.459Z,48.60
2019-05-14T21:47:24.039Z,48.70
2019-05-14T21:49:57.543Z,48.90
2019-05-14T21:52:30.956Z,49.00
2019-05-14T21:55:06.551Z,49.10
2019-05-14T21:57:53.460Z,49.30
2019-05-14T22:00:31.835Z,49.50
2019-05-14T22:03:05.249Z,49.70
2019-05-14T22:05:39.374Z,49.70
2019-05-14T22:08:12.966Z,49.90
2019-05-14T22:10:48.723Z,50.00
2019-05-14T22:13:21.539Z,50.10
2019-05-14T22:15:55.035Z,50.50
2019-05-14T22:18:28.527Z,50.80
2019-05-14T22:21:01.960Z,51.10
2019-05-14T22:23:35.375Z,51.90
2019-05-14T22:26:08.808Z,51.50
2019-05-14T22:28:42.223Z,51.90
2019-05-14T22:31:17.083Z,52.20
2019-05-14T22:33:50.797Z,52.40
2019-05-14T22:36:24.244Z,52.50
2019-05-14T22:38:57.960Z,52.60
2019-05-14T22:41:31.670Z,52.80
2019-05-14T22:44:05.116Z,52.70
2019-05-14T22:46:40.368Z,52.90
2019-05-14T22:49:13.727Z,53.10
2019-05-14T22:51:49.237Z,53.20
2019-05-14T22:54:22.291Z,53.90
2019-05-14T22:56:55.744Z,53.50
2019-05-14T22:59:29.212Z,53.60
2019-05-14T23:02:02.720Z,53.90
2019-05-14T23:04:38.365Z,54.00
2019-05-14T23:07:11.317Z,54.10
2019-05-14T23:09:44.735Z,54.20
2019-05-14T23:12:18.161Z,54.40
2019-05-14T23:14:51.591Z,54.50
2019-05-14T23:17:25.011Z,54.50
2019-05-14T23:19:58.440Z,54.60
2019-05-14T23:22:31.859Z,54.60
2019-05-14T23:25:08.909Z,54.80
2019-05-14T23:27:42.559Z,55.00
2019-05-14T23:30:19.059Z,55.00
2019-05-14T23:32:52.479Z,55.20
2019-05-14T23:35:28.215Z,55.30
2019-05-14T23:38:01.329Z,55.20
2019-05-14T23:40:35.193Z,56.30
2019-05-14T23:43:08.605Z,56.40
2019-05-14T23:45:42.039Z,56.50
2019-05-14T23:48:15.458Z,56.70
2019-05-14T23:50:48.949Z,56.80
2019-05-14T23:53:22.363Z,56.90
2019-05-14T23:55:55.791Z,57.10
2019-05-14T23:58:29.211Z,57.10
